Data for 11/27/2006

Time Sea-Level Adjusted Pressure Absolute Pressure Temperature Relative Humidity Dew Point   
(mb) (inHg) (mb) (inHg) (C) (F) (%) (C) (F)
00:05 1005 29.68 834 24.63 -7.4 18.7 80 -10.4 13.4
00:10 1005 29.68 834 24.63 -8.1 17.4 84 -10.3 13.4
00:15 1005 29.68 834 24.63 -8.3 17.2 84 -10.5 13.1
00:20 1005 29.68 834 24.63 -8.4 16.8 86 -10.3 13.4
00:25 1005 29.68 834 24.63 -8.4 17 86 -10.3 13.5
00:30 1005 29.68 834 24.63 -8.4 16.8 86 -10.4 13.2
00:35 1005 29.68 834 24.63 -8.6 16.6 88 -10.2 13.7
00:40 1005 29.68 834 24.63 -8.5 16.7 85 -10.6 12.8
00:45 1004 29.65 834 24.63 -8 17.7 83 -10.4 13.3
00:50 1005 29.68 834 24.63 -7.6 18.3 81 -10.3 13.5
00:55 1005 29.68 834 24.63 -7.7 18.1 83 -10.1 13.8
01:00 1004 29.65 834 24.63 -8.2 17.3 85 -10.3 13.4
01:05 1005 29.68 834 24.63 -8.2 17.3 86 -10.1 13.8
01:10 1005 29.68 834 24.63 -8.4 16.9 86 -10.3 13.5
01:15 1004 29.65 834 24.63 -8.9 15.9 90 -10.3 13.4
01:20 1004 29.65 833 24.6 -9.2 15.4 91 -10.5 13.2
01:25 1004 29.65 833 24.6 -9.3 15.2 92 -10.4 13.2
01:30 1004 29.65 833 24.6 -9.8 14.5 93 -10.7 12.8
01:35 1004 29.65 833 24.6 -9.7 14.6 93 -10.7 12.8
01:40 1004 29.65 833 24.6 -9.3 15.3 91 -10.5 13.1
01:45 1004 29.65 833 24.6 -9.3 15.3 91 -10.5 13.2
01:50 1004 29.65 833 24.6 -9.3 15.3 92 -10.3 13.4
01:55 1004 29.65 833 24.6 -9.1 15.6 91 -10.3 13.4
02:00 1004 29.65 833 24.6 -9.3 15.2 92 -10.4 13.4
02:05 1004 29.65 833 24.6 -9.5 14.9 94 -10.4 13.3
02:10 1004 29.65 833 24.6 -9.6 14.8 93 -10.5 13.2
02:15 1004 29.65 833 24.6 -9.7 14.6 94 -10.4 13.2
02:20 1004 29.65 833 24.6 -9.7 14.5 95 -10.3 13.4
02:25 1004 29.65 833 24.6 -9.5 14.9 94 -10.3 13.5
02:30 1004 29.65 833 24.6 -9.7 14.6 94 -10.5 13.2
02:35 1004 29.65 833 24.6 -9.9 14.3 94 -10.6 12.9
02:40 1004 29.65 833 24.6 -10.1 13.9 95 -10.7 12.7
02:45 1004 29.65 833 24.6 -10.1 13.7 95 -10.8 12.5
02:50 1004 29.65 833 24.6 -10 14 95 -10.7 12.7
02:55 1004 29.65 833 24.6 -10 14 95 -10.6 12.9
03:00 1004 29.65 833 24.6 -9.8 14.3 95 -10.5 13.1
03:05 1004 29.65 833 24.6 -9.7 14.5 94 -10.5 13.1
03:10 1004 29.65 833 24.6 -9.9 14.3 94 -10.6 12.9
03:15 1004 29.65 833 24.6 -9.8 14.3 95 -10.5 13
03:20 1004 29.65 833 24.6 -9.9 14.3 95 -10.6 13
03:25 1004 29.65 833 24.6 -9.9 14.3 95 -10.5 13.1
03:30 1004 29.65 833 24.6 -9.8 14.5 94 -10.5 13
03:35 1004 29.65 833 24.6 -9.8 14.3 94 -10.5 13
03:40 1004 29.65 833 24.6 -9.8 14.4 94 -10.6 13
03:45 1003 29.62 833 24.6 -9.9 14.2 94 -10.7 12.8
03:50 1003 29.62 833 24.6 -9.9 14.2 94 -10.6 12.9
03:55 1003 29.62 833 24.6 -9.7 14.5 94 -10.6 13
04:00 1003 29.62 832 24.57 -10 14 94 -10.8 12.6
04:05 1003 29.62 832 24.57 -10.1 13.9 95 -10.8 12.6
04:10 1003 29.62 832 24.57 -9.9 14.1 95 -10.6 12.8
04:15 1003 29.62 832 24.57 -9.9 14.2 94 -10.6 12.8
04:20 1003 29.62 833 24.6 -10 13.9 95 -10.7 12.8
04:25 1003 29.62 832 24.57 -10.1 13.9 96 -10.6 12.9
04:30 1003 29.62 833 24.6 -10 14 95 -10.6 12.8
04:35 1003 29.62 832 24.57 -10.1 13.8 96 -10.7 12.8
04:40 1003 29.62 833 24.6 -10.3 13.6 96 -10.8 12.6
04:45 1003 29.62 832 24.57 -10.2 13.6 97 -10.7 12.8
04:50 1003 29.62 832 24.57 -10.2 13.7 97 -10.6 12.9
04:55 1003 29.62 832 24.57 -10 14 95 -10.7 12.8
05:00 1003 29.62 832 24.57 -10.1 13.8 95 -10.8 12.6
05:05 1003 29.62 832 24.57 -10.3 13.4 95 -11 12.1
05:10 1003 29.62 832 24.57 -10.3 13.4 94 -11.2 11.9
05:15 1003 29.62 832 24.57 -10.6 12.8 95 -11.4 11.6
05:20 1003 29.62 832 24.57 -10.6 13 95 -11.2 11.8
05:25 1003 29.62 833 24.6 -10.4 13.3 94 -11.2 11.9
05:30 1003 29.62 832 24.57 -10.4 13.3 94 -11.2 11.9
05:35 1003 29.62 832 24.57 -10.4 13.2 93 -11.3 11.6
05:40 1003 29.62 832 24.57 -10.7 12.8 93 -11.6 11.2
05:45 1003 29.62 832 24.57 -11 12.3 94 -11.8 10.8
05:50 1003 29.62 832 24.57 -10.9 12.4 93 -11.8 10.8
05:55 1003 29.62 832 24.57 -10.8 12.5 93 -11.7 10.9
06:00 1003 29.62 832 24.57 -10.8 12.7 92 -11.9 10.6
06:05 1003 29.62 832 24.57 -11.1 12 92 -12.1 10.2
06:10 1003 29.62 832 24.57 -11.2 11.9 93 -12.2 10.1
06:15 1003 29.62 832 24.57 -11.1 12.1 93 -12 10.4
06:20 1003 29.62 832 24.57 -11.1 12 93 -12.1 10.2
06:25 1003 29.62 832 24.57 -11.1 11.9 93 -12.1 10.2
06:30 1003 29.62 832 24.57 -11 12.1 93 -12 10.4
06:35 1003 29.62 832 24.57 -11 12.3 93 -11.9 10.6
06:40 1003 29.62 832 24.57 -10.8 12.6 93 -11.8 10.8
06:45 1003 29.62 832 24.57 -10.8 12.6 92 -11.8 10.8
06:50 1003 29.62 832 24.57 -10.7 12.7 92 -11.8 10.8
06:55 1003 29.62 832 24.57 -10.8 12.7 91 -11.9 10.6
07:00 1003 29.62 832 24.57 -10.9 12.5 91 -12 10.3
07:05 1003 29.62 832 24.57 -11 12.2 92 -12.1 10.2
07:10 1003 29.62 832 24.57 -11.1 12.1 91 -12.2 10
07:15 1003 29.62 832 24.57 -11.4 11.5 91 -12.5 9.5
07:20 1003 29.62 832 24.57 -11.4 11.5 91 -12.6 9.4
07:25 1003 29.62 832 24.57 -11.5 11.4 92 -12.5 9.4
07:30 1003 29.62 832 24.57 -11.5 11.3 91 -12.7 9.2
07:35 1003 29.62 832 24.57 -11.7 11 92 -12.7 9.1
07:40 1003 29.62 832 24.57 -11.5 11.3 93 -12.5 9.5
07:45 1003 29.62 832 24.57 -11.4 11.5 93 -12.4 9.7
07:50 1003 29.62 832 24.57 -11.3 11.7 92 -12.3 9.9
07:55 1003 29.62 832 24.57 -11.1 12 92 -12.1 10.2
08:00 1003 29.62 832 24.57 -11 12.1 92 -12.1 10.2
08:05 1003 29.62 832 24.57 -11 12.2 92 -12 10.3
08:10 1003 29.62 832 24.57 -10.8 12.6 92 -11.8 10.7
08:15 1003 29.62 832 24.57 -10.5 13.1 92 -11.6 11.2
08:20 1003 29.62 832 24.57 -10.4 13.3 92 -11.5 11.4
08:25 1003 29.62 832 24.57 -10.4 13.3 91 -11.5 11.2
08:30 1003 29.62 832 24.57 -10.2 13.6 91 -11.4 11.4
08:35 1003 29.62 832 24.57 -9.9 14.2 90 -11.2 11.9
08:40 1003 29.62 832 24.57 -9.8 14.3 89 -11.3 11.7
08:45 1003 29.62 832 24.57 -9.9 14.2 88 -11.5 11.3
08:50 1003 29.62 832 24.57 -10.1 13.8 88 -11.7 10.9
08:55 1003 29.62 832 24.57 -10.6 12.9 90 -12 10.4
09:00 1003 29.62 832 24.57 -10.7 12.7 90 -12.1 10.2
09:05 1003 29.62 832 24.57 -10.6 12.9 91 -11.9 10.7
09:10 1003 29.62 832 24.57 -10.2 13.7 88 -11.8 10.7
09:15 1003 29.62 832 24.57 -9.9 14.3 88 -11.5 11.4
09:20 1003 29.62 832 24.57 -9.8 14.4 87 -11.5 11.2
09:25 1003 29.62 832 24.57 -10 14 87 -11.8 10.7
09:30 1003 29.62 832 24.57 -10.2 13.6 86 -12.1 10.2
09:35 1003 29.62 832 24.57 -10.4 13.3 85 -12.5 9.5
09:40 1003 29.62 832 24.57 -10.7 12.8 86 -12.6 9.3
09:45 1003 29.62 832 24.57 -10.8 12.6 87 -12.6 9.3
09:50 1003 29.62 832 24.57 -10.9 12.4 86 -12.8 9
09:55 1003 29.62 832 24.57 -10.7 12.8 85 -12.7 9.2
10:00 1003 29.62 833 24.6 -10.5 13.1 84 -12.8 9
10:05 1003 29.62 833 24.6 -10.5 13.1 82 -12.9 8.7
10:10 1003 29.62 833 24.6 -10.7 12.7 85 -12.8 9
10:15 1003 29.62 833 24.6 -10.3 13.5 82 -12.7 9.1
10:20 1003 29.62 833 24.6 -10.3 13.5 83 -12.7 9.1
10:25 1004 29.65 833 24.6 -10.4 13.3 82 -12.9 8.9
10:30 1004 29.65 833 24.6 -10.3 13.4 83 -12.7 9.2
10:35 1004 29.65 833 24.6 -10.2 13.7 81 -12.8 9
10:40 1004 29.65 833 24.6 -9.9 14.1 80 -12.8 8.9
10:45 1004 29.65 833 24.6 -10 14 80 -12.8 8.9
10:50 1004 29.65 833 24.6 -10 13.9 79 -13.1 8.5
10:55 1004 29.65 833 24.6 -10 14.1 79 -12.9 8.7
11:00 1004 29.65 833 24.6 -9.7 14.6 78 -12.9 8.9
11:05 1004 29.65 833 24.6 -10 14 80 -12.9 8.8
11:10 1004 29.65 833 24.6 -9.9 14.1 77 -13.2 8.2
11:15 1004 29.65 833 24.6 -10.1 13.8 77 -13.3 8
11:20 1004 29.65 833 24.6 -10.1 13.8 78 -13.3 8.1
11:25 1004 29.65 833 24.6 -10.1 13.9 78 -13.3 8.1
11:30 1004 29.65 833 24.6 -9.9 14.2 77 -13.1 8.3
11:35 1004 29.65 833 24.6 -10 14.1 78 -13.1 8.3
11:40 1004 29.65 833 24.6 -10.1 13.9 77 -13.3 8
11:45 1003 29.62 833 24.6 -10.1 13.8 78 -13.3 8.1
11:50 1003 29.62 833 24.6 -10.1 13.9 79 -13.1 8.5
11:55 1003 29.62 833 24.6 -9.9 14.1 78 -13 8.5
12:00 1003 29.62 832 24.57 -9.8 14.3 78 -13.1 8.5
12:05 1003 29.62 833 24.6 -9.8 14.3 76 -13.2 8.2
12:10 1003 29.62 832 24.57 -9.9 14.3 77 -13.2 8.3
12:15 1003 29.62 832 24.57 -9.9 14.2 77 -13.2 8.2
12:20 1003 29.62 832 24.57 -9.8 14.3 76 -13.2 8.2
12:25 1003 29.62 832 24.57 -10.2 13.7 78 -13.4 7.9
12:30 1003 29.62 832 24.57 -10.1 13.8 76 -13.6 7.6
12:35 1003 29.62 832 24.57 -10.1 13.7 76 -13.6 7.6
12:40 1003 29.62 832 24.57 -10.5 13.1 78 -13.6 7.5
12:45 1003 29.62 832 24.57 -10.6 12.9 78 -13.7 7.4
12:50 1003 29.62 832 24.57 -10.7 12.7 79 -13.6 7.4
12:55 1003 29.62 832 24.57 -10.5 13.1 79 -13.5 7.7
13:00 1003 29.62 832 24.57 -10.4 13.2 77 -13.7 7.3
13:05 1003 29.62 832 24.57 -10.7 12.8 78 -13.8 7.1
13:10 1003 29.62 832 24.57 -10.7 12.7 77 -14 6.8
13:15 1003 29.62 832 24.57 -10.6 12.9 78 -13.8 7.1
13:20 1003 29.62 832 24.57 -10.6 12.9 78 -13.8 7.2
13:25 1003 29.62 832 24.57 -10.5 13.1 78 -13.7 7.4
13:30 1003 29.62 832 24.57 -10.4 13.3 77 -13.7 7.3
13:35 1003 29.62 832 24.57 -10.5 13.1 78 -13.7 7.4
13:40 1003 29.62 832 24.57 -10.4 13.4 78 -13.5 7.7
13:45 1003 29.62 832 24.57 -10.4 13.4 77 -13.7 7.4
13:50 1003 29.62 832 24.57 -10.4 13.3 76 -13.8 7.2
13:55 1003 29.62 832 24.57 -10.4 13.3 78 -13.6 7.5
14:00 1003 29.62 832 24.57 -10.7 12.8 77 -13.9 7
14:05 1003 29.62 832 24.57 -10.6 12.9 77 -13.8 7.1
14:10 1003 29.62 832 24.57 -10.5 13.1 76 -13.9 6.9
14:15 1003 29.62 832 24.57 -10.6 13 77 -13.8 7.1
14:20 1003 29.62 832 24.57 -10.4 13.2 77 -13.8 7.2
14:25 1003 29.62 832 24.57 -10.1 13.8 75 -13.8 7.2
14:30 1003 29.62 832 24.57 -10 14 74 -13.8 7.1
14:35 1003 29.62 832 24.57 -10.1 13.9 74 -13.9 7.1
14:40 1003 29.62 832 24.57 -10.4 13.4 75 -13.9 6.9
14:45 1003 29.62 832 24.57 -10.8 12.5 78 -14 6.8
14:50 1003 29.62 832 24.57 -11.1 12 78 -14.2 6.5
14:55 1003 29.62 832 24.57 -11.5 11.4 79 -14.3 6.2
15:00 1003 29.62 832 24.57 -11.6 11.2 81 -14.3 6.3
15:05 1003 29.62 832 24.57 -11.5 11.2 81 -14.2 6.5
15:10 1003 29.62 833 24.6 -11.7 11 81 -14.4 6.1
15:15 1003 29.62 833 24.6 -11.9 10.6 81 -14.5 5.8
15:20 1004 29.65 833 24.6 -11.9 10.5 82 -14.5 6
15:25 1004 29.65 833 24.6 -11.9 10.6 81 -14.5 5.9
15:30 1004 29.65 833 24.6 -11.9 10.5 82 -14.4 6.1
15:35 1004 29.65 833 24.6 -11.9 10.5 81 -14.5 5.8
15:40 1004 29.65 833 24.6 -12.2 10.1 81 -14.8 5.3
15:45 1004 29.65 833 24.6 -12.4 9.8 82 -14.9 5.3
15:50 1004 29.65 833 24.6 -12.5 9.5 82 -14.9 5.1
15:55 1004 29.65 833 24.6 -12.5 9.6 82 -14.9 5.2
16:00 1004 29.65 833 24.6 -12.4 9.7 83 -14.8 5.4
16:05 1004 29.65 833 24.6 -12.5 9.6 82 -14.9 5.2
16:10 1004 29.65 833 24.6 -12.5 9.5 82 -14.9 5.2
16:15 1004 29.65 834 24.63 -12.6 9.3 81 -15.2 4.6
16:20 1004 29.65 833 24.6 -12.9 8.8 84 -15 5
16:25 1004 29.65 833 24.6 -13.2 8.3 85 -15.2 4.7
16:30 1004 29.65 833 24.6 -13.3 8 86 -15.2 4.6
16:35 1004 29.65 833 24.6 -13.5 7.8 86 -15.4 4.3
16:40 1004 29.65 833 24.6 -13.5 7.7 86 -15.4 4.3
16:45 1005 29.68 834 24.63 -13.2 8.2 85 -15.3 4.5
16:50 1005 29.68 834 24.63 -13.3 8 85 -15.3 4.4
16:55 1005 29.68 834 24.63 -13.3 8 86 -15.3 4.5
17:00 1005 29.68 834 24.63 -13.1 8.5 84 -15.2 4.6
17:05 1005 29.68 834 24.63 -13.1 8.5 84 -15.2 4.7
17:10 1005 29.68 834 24.63 -13 8.6 84 -15.2 4.6
17:15 1005 29.68 834 24.63 -13.1 8.5 85 -15.1 4.8
17:20 1005 29.68 834 24.63 -13 8.7 86 -14.9 5.2
17:25 1005 29.68 834 24.63 -12.9 8.9 86 -14.8 5.4
17:30 1005 29.68 834 24.63 -12.7 9.1 84 -14.9 5.2
17:35 1005 29.68 834 24.63 -13 8.6 88 -14.7 5.6
17:40 1005 29.68 834 24.63 -13.2 8.2 88 -14.9 5.3
17:45 1005 29.68 834 24.63 -13.4 7.9 89 -14.9 5.2
17:50 1005 29.68 834 24.63 -13.4 7.9 88 -14.9 5.1
17:55 1005 29.68 834 24.63 -13.5 7.7 89 -15 5
18:00 1005 29.68 834 24.63 -13.5 7.7 89 -14.9 5.1
18:05 1005 29.68 834 24.63 -13.4 7.9 90 -14.8 5.4
18:10 1005 29.68 834 24.63 -13.1 8.4 90 -14.5 6
18:15 1005 29.68 834 24.63 -12.8 8.9 89 -14.3 6.3
18:20 1005 29.68 834 24.63 -12.6 9.3 88 -14.2 6.4
18:25 1005 29.68 835 24.66 -12.6 9.3 88 -14.3 6.3
18:30 1005 29.68 834 24.63 -12.8 9.1 86 -14.6 5.8
18:35 1005 29.68 834 24.63 -13.1 8.4 89 -14.6 5.7
18:40 1005 29.68 834 24.63 -12.9 8.7 88 -14.5 5.8
18:45 1005 29.68 834 24.63 -12.9 8.8 87 -14.6 5.8
18:50 1005 29.68 834 24.63 -13 8.6 86 -14.9 5.2
18:55 1005 29.68 834 24.63 -13.4 7.9 86 -15.2 4.6
19:00 1005 29.68 835 24.66 -13.6 7.5 86 -15.5 4
19:05 1005 29.68 835 24.66 -14 6.8 85 -16 3.1
19:10 1005 29.68 835 24.66 -14.3 6.3 85 -16.3 2.7
19:15 1005 29.68 835 24.66 -14.5 5.9 85 -16.4 2.4
19:20 1006 29.71 835 24.66 -14.7 5.6 86 -16.5 2.2
19:25 1006 29.71 835 24.66 -14.7 5.5 86 -16.6 2.1
19:30 1006 29.71 835 24.66 -14.8 5.4 86 -16.6 2.1
19:35 1006 29.71 835 24.66 -14.8 5.4 85 -16.7 1.9
19:40 1006 29.71 835 24.66 -14.9 5.2 86 -16.7 1.9
19:45 1006 29.71 835 24.66 -14.9 5.3 85 -16.8 1.7
19:50 1006 29.71 835 24.66 -14.9 5.2 86 -16.8 1.8
19:55 1006 29.71 835 24.66 -14.9 5.3 86 -16.8 1.8
20:00 1006 29.71 835 24.66 -14.9 5.1 85 -17 1.5
20:05 1006 29.71 835 24.66 -15 4.9 85 -17 1.4
20:10 1006 29.71 835 24.66 -14.9 5.1 86 -16.9 1.7
20:15 1006 29.71 835 24.66 -14.9 5.2 85 -16.8 1.7
20:20 1006 29.71 835 24.66 -14.9 5.1 85 -16.9 1.5
20:25 1006 29.71 835 24.66 -15 5.1 85 -16.9 1.6
20:30 1006 29.71 835 24.66 -14.9 5.2 84 -17 1.4
20:35 1006 29.71 835 24.66 -15.1 4.8 84 -17.2 1
20:40 1006 29.71 835 24.66 -15.4 4.4 84 -17.5 0.4
20:45 1006 29.71 835 24.66 -15.5 4.1 85 -17.5 0.5
20:50 1006 29.71 835 24.66 -15.6 3.9 84 -17.8 -0
20:55 1006 29.71 835 24.66 -15.9 3.5 85 -17.9 -0.2
21:00 1006 29.71 836 24.69 -15.9 3.3 84 -18 -0.4
21:05 1006 29.71 836 24.69 -16 3.1 84 -18.1 -0.5
21:10 1006 29.71 836 24.69 -16.1 3.1 85 -18.1 -0.6
21:15 1006 29.71 836 24.69 -16 3.2 85 -18 -0.4
21:20 1006 29.71 836 24.69 -16 3.3 84 -18 -0.4
21:25 1007 29.74 836 24.69 -15.9 3.4 85 -17.9 -0.2
21:30 1007 29.74 836 24.69 -15.9 3.4 85 -17.9 -0.2
21:35 1007 29.74 836 24.69 -16 3.1 84 -18.1 -0.6
21:40 1007 29.74 836 24.69 -16.1 3 85 -18.1 -0.7
21:45 1007 29.74 836 24.69 -16.1 3 85 -18.1 -0.7
21:50 1007 29.74 836 24.69 -16.1 2.9 84 -18.3 -1
21:55 1007 29.74 836 24.69 -16.3 2.7 84 -18.5 -1.2
22:00 1007 29.74 836 24.69 -16.3 2.6 85 -18.4 -1
22:05 1007 29.74 836 24.69 -16.3 2.7 84 -18.3 -1
22:10 1007 29.74 836 24.69 -16.3 2.7 85 -18.3 -0.9
22:15 1007 29.74 836 24.69 -16.3 2.7 85 -18.2 -0.8
22:20 1007 29.74 836 24.69 -16.2 2.8 85 -18.2 -0.8
22:25 1007 29.74 836 24.69 -16.2 2.8 85 -18.2 -0.7
22:30 1007 29.74 836 24.69 -16.2 2.9 85 -18.1 -0.6
22:35 1007 29.74 836 24.69 -16.2 2.8 84 -18.3 -1
22:40 1007 29.74 837 24.72 -16.5 2.4 85 -18.5 -1.3
22:45 1007 29.74 837 24.72 -16.5 2.3 85 -18.5 -1.2
22:50 1007 29.74 837 24.72 -16.5 2.4 85 -18.4 -1.1
22:55 1007 29.74 837 24.72 -16.4 2.4 85 -18.4 -1.1
23:00 1008 29.77 837 24.72 -16.5 2.3 85 -18.5 -1.3
23:05 1008 29.77 837 24.72 -16.6 2.2 84 -18.6 -1.5
23:10 1008 29.77 837 24.72 -16.6 2.2 85 -18.5 -1.3
23:15 1008 29.77 837 24.72 -16.6 2.2 84 -18.7 -1.6
23:20 1008 29.77 837 24.72 -16.7 1.9 84 -18.9 -2
23:25 1008 29.77 837 24.72 -16.7 1.9 84 -18.8 -1.9
23:30 1008 29.77 837 24.72 -16.8 1.7 84 -18.9 -2.1
23:35 1008 29.77 837 24.72 -16.9 1.6 84 -19 -2.2
23:40 1008 29.77 837 24.72 -16.9 1.5 83 -19.1 -2.4
23:45 1008 29.77 837 24.72 -17 1.4 84 -19.1 -2.3
23:50 1008 29.77 837 24.72 -17 1.4 85 -19 -2.2
23:55 1008 29.77 837 24.72 -16.9 1.5 85 -18.9 -2.1
24:00 1008 29.77 837 24.72 -17 1.5 85 -19 -2.1